Terminal Aerodrome Forecast
Issued by NWS Albany, NY

Home | Current Version | Previous Version | Text Only | Print | Product List | Glossary On
Versions: 1 2 3 4 5 6 7 8 9 10 11 12 13 14 15 16 17 18 19 20 21
000
FTUS41 KALY 211700
TAFGFL
TAF
KGFL 211723Z 2118/2218 VRB03KT P6SM BKN025 OVC035
      TEMPO 2118/2122 SCT025 OVC035
     FM220600 00000KT 4SM -SHSN BR SCT008 OVC015
     FM221600 VRB03KT 6SM BR VCSH SCT010 OVC020=

USA.gov is the U.S. government's official web portal to all federal, state and local government web resources and services.